Time;durP1;ratioP1;P1;durP2;ratioP2;P2;SDS_P1;SDS_P2;PMS_P1;PMS_P2;Temp;Humidity;BMP_temperature;BMP_pressure;BME280_temperature;BME280_humidity;BME280_pressure;Samples;Min_cycle;Max_cycle;Signal;HPM_P1;HPM_P2
2021/07/28 00:00:09;;;;;;;;;;;;;;;19.06;100.00;98543.78;4991826;28;19940;-62
2021/07/28 00:02:34;;;;;;;;;;;;;;;19.27;100.00;98541.34;4992641;28;19917;-61
2021/07/28 00:05:00;;;;;;;;;;;;;;;19.29;100.00;98529.00;4992953;28;20359;-63
2021/07/28 00:07:25;;;;;;;;;;;;;;;18.98;100.00;98539.97;4992211;28;19956;-63
2021/07/28 00:09:50;;;;;;;;;;;;;;;19.19;100.00;98542.75;4991586;28;19913;-63
2021/07/28 00:12:16;;;;;;;;;;;;;;;19.42;100.00;98534.97;4990613;28;19917;-63
2021/07/28 00:14:41;;;;;;;;;;;;;;;19.08;100.00;98537.50;4988240;28;19925;-63
2021/07/28 00:17:10;;;;;;;;;;;;;;;18.68;100.00;98534.34;4983955;28;19967;-64
2021/07/28 00:19:53;;;;;;;;;;;;;;;18.85;100.00;98530.56;4990550;28;20060;-63
2021/07/28 00:25:03;;;;;;;;;;;;;;;18.98;100.00;98528.69;4990563;28;20499;-62
2021/07/28 00:27:28;;;;;;;;;;;;;;;18.78;100.00;98524.94;4989350;28;19918;-62
2021/07/28 00:29:53;;;;;;;;;;;;;;;18.92;100.00;98526.53;4980970;28;19929;-62
2021/07/28 00:32:19;;;;;;;;;;;;;;;19.42;100.00;98514.06;4982598;28;19922;-62
2021/07/28 00:34:44;;;;;;;;;;;;;;;18.77;100.00;98518.03;4991668;28;20038;-62
2021/07/28 00:37:10;;;;;;;;;;;;;;;19.35;100.00;98518.09;4981834;28;19917;-62
2021/07/28 00:39:35;;;;;;;;;;;;;;;18.83;100.00;98515.00;4980073;28;19918;-63
2021/07/28 00:42:01;;;;;;;;;;;;;;;19.05;100.00;98506.41;4981523;28;19952;-62
2021/07/28 00:44:26;;;;;;;;;;;;;;;19.14;100.00;98502.28;4985101;28;19921;-63
2021/07/28 00:46:51;;;;;;;;;;;;;;;19.51;100.00;98507.31;4982528;28;20004;-63
2021/07/28 00:49:17;;;;;;;;;;;;;;;19.65;100.00;98510.53;4980655;28;19925;-63
2021/07/28 00:51:42;;;;;;;;;;;;;;;19.90;100.00;98503.44;4982568;28;19965;-63
2021/07/28 00:54:08;;;;;;;;;;;;;;;19.44;100.00;98501.75;4983874;28;19917;-63
2021/07/28 00:56:34;;;;;;;;;;;;;;;19.39;100.00;98504.69;4982054;28;19918;-64
2021/07/28 00:58:59;;;;;;;;;;;;;;;19.07;100.00;98508.91;4990810;28;19914;-64
2021/07/28 01:01:25;;;;;;;;;;;;;;;18.83;100.00;98495.91;4987066;28;19971;-62
2021/07/28 01:03:50;;;;;;;;;;;;;;;19.08;100.00;98493.13;4981249;28;19924;-62
2021/07/28 01:06:16;;;;;;;;;;;;;;;19.39;100.00;98485.59;4991648;28;19914;-62
2021/07/28 01:08:41;;;;;;;;;;;;;;;19.50;100.00;98490.84;4991308;28;20394;-62
2021/07/28 01:11:07;;;;;;;;;;;;;;;19.21;100.00;98485.22;4991078;28;20000;-62
2021/07/28 01:13:35;;;;;;;;;;;;;;;19.05;100.00;98490.75;4991661;28;20310;-62
2021/07/28 01:16:04;;;;;;;;;;;;;;;18.69;100.00;98495.13;4991440;28;19922;-62
2021/07/28 01:18:30;;;;;;;;;;;;;;;18.54;100.00;98491.00;4991574;28;19914;-62
2021/07/28 01:20:55;;;;;;;;;;;;;;;18.37;100.00;98490.47;4990248;28;19917;-63
2021/07/28 01:23:24;;;;;;;;;;;;;;;18.04;100.00;98488.50;4989906;28;20270;-62
2021/07/28 01:25:50;;;;;;;;;;;;;;;18.57;100.00;98496.84;4991173;28;20390;-62
2021/07/28 01:28:15;;;;;;;;;;;;;;;18.39;100.00;98493.78;4991282;28;19917;-62
2021/07/28 01:30:41;;;;;;;;;;;;;;;18.53;100.00;98497.19;4989911;28;19920;-62
2021/07/28 01:33:06;;;;;;;;;;;;;;;18.75;100.00;98505.09;4989934;28;19921;-62
2021/07/28 01:35:32;;;;;;;;;;;;;;;18.94;100.00;98504.59;4990944;28;19928;-62
2021/07/28 01:38:12;;;;;;;;;;;;;;;18.94;100.00;98501.16;4989871;28;20379;-62
2021/07/28 01:40:38;;;;;;;;;;;;;;;19.10;100.00;98501.69;4975267;28;20366;-62
2021/07/28 01:43:11;;;;;;;;;;;;;;;19.01;100.00;98504.97;4991186;28;20418;-62
2021/07/28 01:45:37;;;;;;;;;;;;;;;19.02;100.00;98506.63;4991225;28;19916;-62
2021/07/28 01:48:02;;;;;;;;;;;;;;;18.90;100.00;98497.13;4991200;28;20454;-61
2021/07/28 01:50:28;;;;;;;;;;;;;;;19.06;100.00;98502.84;4991222;28;20367;-62
2021/07/28 01:52:53;;;;;;;;;;;;;;;18.65;100.00;98501.50;4991284;28;20028;-61
2021/07/28 01:55:18;;;;;;;;;;;;;;;18.85;100.00;98512.28;4990949;28;20310;-62
2021/07/28 01:57:44;;;;;;;;;;;;;;;18.79;100.00;98513.56;5007946;28;19922;-62
2021/07/28 02:00:09;;;;;;;;;;;;;;;18.84;100.00;98508.00;5010220;28;20307;-62
2021/07/28 02:02:35;;;;;;;;;;;;;;;18.90;100.00;98513.59;5010120;28;20248;-62
2021/07/28 02:05:02;;;;;;;;;;;;;;;18.79;100.00;98517.03;5009323;28;19913;-62
2021/07/28 02:07:27;;;;;;;;;;;;;;;18.62;100.00;98504.34;4992919;28;19952;-62
2021/07/28 02:09:53;;;;;;;;;;;;;;;18.68;100.00;98503.91;4988393;28;19913;-62
2021/07/28 02:12:18;;;;;;;;;;;;;;;18.65;100.00;98506.72;4994873;28;19914;-62
2021/07/28 02:14:44;;;;;;;;;;;;;;;18.70;100.00;98509.84;4992741;28;19929;-64
2021/07/28 02:17:09;;;;;;;;;;;;;;;19.09;100.00;98513.06;4989027;28;20373;-64
2021/07/28 02:19:35;;;;;;;;;;;;;;;18.68;100.00;98514.34;4983634;28;19928;-64
2021/07/28 02:22:00;;;;;;;;;;;;;;;18.76;100.00;98514.59;4992341;28;20017;-63
2021/07/28 02:24:26;;;;;;;;;;;;;;;18.89;100.00;98514.56;4988962;28;20529;-62
2021/07/28 02:26:51;;;;;;;;;;;;;;;18.58;100.00;98511.53;4982892;28;19921;-61
2021/07/28 02:29:17;;;;;;;;;;;;;;;19.01;100.00;98507.59;4981567;28;19926;-62
2021/07/28 02:31:43;;;;;;;;;;;;;;;18.51;100.00;98497.28;4983483;28;20012;-62
2021/07/28 02:34:08;;;;;;;;;;;;;;;18.79;100.00;98498.75;4981995;28;20013;-62
2021/07/28 02:36:33;;;;;;;;;;;;;;;18.77;100.00;98498.03;4983347;28;19949;-63
2021/07/28 02:38:59;;;;;;;;;;;;;;;18.86;100.00;98493.91;4986191;28;20371;-63
2021/07/28 02:41:24;;;;;;;;;;;;;;;19.01;100.00;98494.53;4986156;28;20291;-62
2021/07/28 02:43:50;;;;;;;;;;;;;;;18.69;100.00;98495.13;4981949;28;19928;-63
2021/07/28 02:46:15;;;;;;;;;;;;;;;18.98;100.00;98500.00;4984836;28;19971;-63
2021/07/28 02:48:40;;;;;;;;;;;;;;;18.96;100.00;98492.28;4986404;28;19960;-64
2021/07/28 02:51:06;;;;;;;;;;;;;;;18.76;100.00;98485.88;4984892;28;19965;-62
2021/07/28 02:53:31;;;;;;;;;;;;;;;18.54;100.00;98481.44;4990951;28;19964;-61
2021/07/28 02:55:56;;;;;;;;;;;;;;;18.63;100.00;98485.13;4982386;28;19972;-62
2021/07/28 02:58:22;;;;;;;;;;;;;;;18.93;100.00;98487.28;4981382;28;19918;-62
2021/07/28 03:00:47;;;;;;;;;;;;;;;18.67;100.00;98480.53;4989333;28;19929;-62
2021/07/28 03:03:12;;;;;;;;;;;;;;;18.80;100.00;98479.53;4981558;28;19932;-64
2021/07/28 03:05:38;;;;;;;;;;;;;;;18.97;100.00;98478.25;4981074;28;19964;-63
2021/07/28 03:08:03;;;;;;;;;;;;;;;18.59;100.00;98478.50;4991364;28;19914;-63
2021/07/28 03:10:29;;;;;;;;;;;;;;;18.71;100.00;98472.38;4984318;28;19922;-63
2021/07/28 03:12:54;;;;;;;;;;;;;;;18.59;100.00;98483.72;4982219;28;20423;-63
2021/07/28 03:15:20;;;;;;;;;;;;;;;18.50;100.00;98479.16;4981184;28;19932;-63
2021/07/28 03:17:45;;;;;;;;;;;;;;;18.55;100.00;98467.44;4987270;28;20391;-62
2021/07/28 03:20:11;;;;;;;;;;;;;;;18.70;100.00;98475.94;4995412;28;19961;-63
2021/07/28 03:22:36;;;;;;;;;;;;;;;18.63;100.00;98472.09;4984177;28;19921;-62
2021/07/28 03:25:02;;;;;;;;;;;;;;;18.39;100.00;98472.94;4993372;28;19918;-62
2021/07/28 03:27:27;;;;;;;;;;;;;;;18.59;100.00;98462.84;4991760;28;20474;-64
2021/07/28 03:29:53;;;;;;;;;;;;;;;18.68;100.00;98467.38;4982116;28;19989;-62
2021/07/28 03:32:18;;;;;;;;;;;;;;;18.73;100.00;98469.66;4980968;28;20403;-63
2021/07/28 03:34:43;;;;;;;;;;;;;;;18.79;100.00;98480.50;4987696;28;19922;-63
2021/07/28 03:37:09;;;;;;;;;;;;;;;19.07;100.00;98473.22;4981909;28;19929;-61
2021/07/28 03:39:34;;;;;;;;;;;;;;;19.01;100.00;98471.06;4981464;28;20016;-62
2021/07/28 03:42:00;;;;;;;;;;;;;;;19.15;100.00;98470.84;4989099;28;19918;-62
2021/07/28 03:44:25;;;;;;;;;;;;;;;19.13;100.00;98471.91;4993147;28;19918;-62
2021/07/28 03:46:50;;;;;;;;;;;;;;;19.18;100.00;98475.84;4992521;28;19925;-62
2021/07/28 03:49:16;;;;;;;;;;;;;;;19.20;100.00;98475.69;4987765;28;20020;-61
2021/07/28 03:51:41;;;;;;;;;;;;;;;19.14;100.00;98474.41;4980150;28;19917;-62
2021/07/28 03:54:06;;;;;;;;;;;;;;;19.03;100.00;98469.16;4981379;28;19963;-61
2021/07/28 03:56:32;;;;;;;;;;;;;;;18.86;100.00;98466.97;4979999;28;20012;-61
2021/07/28 03:58:57;;;;;;;;;;;;;;;18.74;100.00;98469.50;4983776;28;19922;-63
2021/07/28 04:01:23;;;;;;;;;;;;;;;18.93;100.00;98470.78;4991220;28;19933;-63
2021/07/28 04:03:52;;;;;;;;;;;;;;;19.09;100.00;98462.63;4987116;28;19922;-62
2021/07/28 04:06:17;;;;;;;;;;;;;;;18.59;100.00;98455.84;4980130;28;19930;-62
2021/07/28 04:08:43;;;;;;;;;;;;;;;18.65;100.00;98466.75;4980676;28;19920;-62
2021/07/28 04:11:08;;;;;;;;;;;;;;;18.75;100.00;98459.94;4986683;28;19918;-64
2021/07/28 04:13:34;;;;;;;;;;;;;;;19.06;100.00;98458.47;4987525;28;20401;-63
2021/07/28 04:15:59;;;;;;;;;;;;;;;19.19;100.00;98467.03;4990726;28;19958;-63
2021/07/28 04:18:25;;;;;;;;;;;;;;;18.36;100.00;98467.13;4983011;28;19964;-64
2021/07/28 04:20:50;;;;;;;;;;;;;;;18.77;100.00;98466.72;4986912;28;19922;-62
2021/07/28 04:23:15;;;;;;;;;;;;;;;19.00;100.00;98466.78;4992445;28;20390;-62
2021/07/28 04:25:41;;;;;;;;;;;;;;;18.50;100.00;98466.13;4991120;28;19924;-62
2021/07/28 04:28:06;;;;;;;;;;;;;;;18.49;100.00;98467.88;4986145;28;19972;-62
2021/07/28 04:30:32;;;;;;;;;;;;;;;18.76;100.00;98472.84;4977881;28;19913;-62
2021/07/28 04:32:58;;;;;;;;;;;;;;;19.19;100.00;98463.63;4982339;28;19922;-62
2021/07/28 04:35:23;;;;;;;;;;;;;;;18.83;100.00;98473.25;4988221;28;20405;-62
2021/07/28 04:37:48;;;;;;;;;;;;;;;19.08;100.00;98474.84;4981117;28;20000;-63
2021/07/28 04:40:14;;;;;;;;;;;;;;;18.80;100.00;98476.09;4983701;28;19926;-64
2021/07/28 04:42:40;;;;;;;;;;;;;;;18.79;100.00;98480.50;4986277;28;19945;-63
2021/07/28 04:45:06;;;;;;;;;;;;;;;19.05;100.00;98484.72;4985959;28;19976;-63
2021/07/28 04:47:31;;;;;;;;;;;;;;;18.65;100.00;98475.41;4989557;28;20000;-62
2021/07/28 04:49:57;;;;;;;;;;;;;;;18.66;100.00;98487.53;4991983;28;20371;-62
2021/07/28 04:52:25;;;;;;;;;;;;;;;19.05;100.00;98475.09;4981864;28;20488;-64
2021/07/28 04:54:51;;;;;;;;;;;;;;;19.16;100.00;98482.94;4978287;28;19916;-62
2021/07/28 04:57:17;;;;;;;;;;;;;;;18.99;100.00;98488.59;4985605;28;19921;-62
2021/07/28 04:59:42;;;;;;;;;;;;;;;19.00;100.00;98488.50;4984061;28;19914;-62
2021/07/28 05:02:07;;;;;;;;;;;;;;;18.63;100.00;98481.69;4977693;28;19937;-64
2021/07/28 05:04:33;;;;;;;;;;;;;;;19.27;100.00;98484.72;4977452;28;19969;-62
2021/07/28 05:06:58;;;;;;;;;;;;;;;19.52;100.00;98486.28;4981711;28;20005;-63
2021/07/28 05:09:24;;;;;;;;;;;;;;;19.42;100.00;98483.56;4989962;28;20012;-63
2021/07/28 05:11:49;;;;;;;;;;;;;;;18.84;100.00;98487.13;4985308;28;19925;-63
2021/07/28 05:14:14;;;;;;;;;;;;;;;19.33;100.00;98483.44;4978008;28;20570;-63
2021/07/28 05:16:40;;;;;;;;;;;;;;;19.33;100.00;98486.06;4991012;28;20290;-62
2021/07/28 05:19:05;;;;;;;;;;;;;;;19.26;100.00;98477.03;4991228;28;19914;-62
2021/07/28 05:21:31;;;;;;;;;;;;;;;19.08;100.00;98479.25;4981289;28;20005;-64
2021/07/28 05:23:56;;;;;;;;;;;;;;;19.17;100.00;98474.16;4978400;28;19929;-64
2021/07/28 05:26:21;;;;;;;;;;;;;;;19.16;100.00;98474.31;4990715;28;19918;-62
2021/07/28 05:28:47;;;;;;;;;;;;;;;19.02;100.00;98467.47;4990867;28;19960;-63
2021/07/28 05:31:14;;;;;;;;;;;;;;;18.95;100.00;98474.13;4987220;28;19924;-64
2021/07/28 05:33:39;;;;;;;;;;;;;;;19.22;100.00;98465.97;4980150;28;19921;-63
2021/07/28 05:36:05;;;;;;;;;;;;;;;19.13;100.00;98472.72;4983094;28;19918;-63
2021/07/28 05:38:30;;;;;;;;;;;;;;;18.77;100.00;98471.09;4990003;28;20618;-61
2021/07/28 05:40:55;;;;;;;;;;;;;;;19.18;100.00;98465.41;4996893;28;20425;-62
2021/07/28 05:43:22;;;;;;;;;;;;;;;19.14;100.00;98473.59;4981808;28;19921;-61
2021/07/28 05:45:49;;;;;;;;;;;;;;;19.46;100.00;98473.72;4992582;28;19928;-63
2021/07/28 05:48:14;;;;;;;;;;;;;;;19.77;100.00;98471.38;4982196;28;20691;-64
2021/07/28 05:50:40;;;;;;;;;;;;;;;19.83;100.00;98470.91;4990276;28;19918;-63
2021/07/28 05:53:05;;;;;;;;;;;;;;;20.11;100.00;98474.75;4993840;28;19937;-63
2021/07/28 05:55:30;;;;;;;;;;;;;;;19.87;100.00;98472.31;4991356;28;19952;-63
2021/07/28 05:57:58;;;;;;;;;;;;;;;20.08;100.00;98475.00;4993040;28;19948;-62
2021/07/28 06:00:24;;;;;;;;;;;;;;;19.79;100.00;98474.69;4993279;28;20448;-62
2021/07/28 06:02:49;;;;;;;;;;;;;;;19.67;100.00;98476.44;4993665;28;19921;-63
2021/07/28 06:05:14;;;;;;;;;;;;;;;20.16;100.00;98492.69;4993880;28;20368;-62
2021/07/28 06:07:40;;;;;;;;;;;;;;;20.30;100.00;98492.44;4995122;28;19914;-62
2021/07/28 06:10:06;;;;;;;;;;;;;;;20.32;100.00;98482.69;4994451;28;20012;-62
2021/07/28 06:12:32;;;;;;;;;;;;;;;20.56;100.00;98489.50;4990183;28;19914;-64
2021/07/28 06:14:57;;;;;;;;;;;;;;;20.74;100.00;98471.50;4990058;28;19925;-63
2021/07/28 06:17:23;;;;;;;;;;;;;;;20.80;100.00;98484.91;4992621;28;19918;-63
2021/07/28 06:19:48;;;;;;;;;;;;;;;20.78;100.00;98481.59;4993898;28;19914;-63
2021/07/28 06:22:13;;;;;;;;;;;;;;;20.81;100.00;98478.69;4993532;28;20012;-63
2021/07/28 06:24:39;;;;;;;;;;;;;;;20.41;100.00;98476.72;4993701;28;19914;-63
2021/07/28 06:27:04;;;;;;;;;;;;;;;21.11;100.00;98469.25;4980921;28;20008;-63
2021/07/28 06:29:30;;;;;;;;;;;;;;;21.05;100.00;98477.63;4981406;28;19989;-64
2021/07/28 06:31:55;;;;;;;;;;;;;;;20.83;100.00;98474.19;4980939;28;19925;-65
2021/07/28 06:34:21;;;;;;;;;;;;;;;21.06;100.00;98476.66;4983438;28;20371;-64
2021/07/28 06:36:46;;;;;;;;;;;;;;;20.81;100.00;98477.88;4990546;28;19920;-62
2021/07/28 06:39:12;;;;;;;;;;;;;;;20.88;100.00;98474.63;4994178;28;20390;-62
2021/07/28 06:41:37;;;;;;;;;;;;;;;21.18;100.00;98473.00;4993822;28;19928;-63
2021/07/28 06:44:03;;;;;;;;;;;;;;;21.15;100.00;98465.44;4985606;28;20391;-61
2021/07/28 06:46:28;;;;;;;;;;;;;;;21.36;100.00;98472.44;4982459;28;19921;-64
2021/07/28 06:48:54;;;;;;;;;;;;;;;21.47;100.00;98475.00;4982681;28;19918;-62
2021/07/28 06:51:19;;;;;;;;;;;;;;;21.85;99.67;98468.22;4986364;28;19922;-62
2021/07/28 06:53:44;;;;;;;;;;;;;;;22.02;96.71;98467.59;4985454;28;19922;-61
2021/07/28 06:56:11;;;;;;;;;;;;;;;21.79;100.00;98463.53;4968147;28;19933;-64
2021/07/28 06:58:37;;;;;;;;;;;;;;;21.81;95.18;98461.63;4977166;28;20434;-63
2021/07/28 07:01:05;;;;;;;;;;;;;;;21.80;97.80;98467.78;4979850;28;19930;-63
2021/07/28 07:03:30;;;;;;;;;;;;;;;22.46;96.76;98473.31;4993139;28;20489;-62
2021/07/28 07:05:56;;;;;;;;;;;;;;;22.03;95.42;98473.66;4981858;28;20016;-62
2021/07/28 07:08:24;;;;;;;;;;;;;;;23.09;90.55;98474.72;4986807;28;19924;-63
2021/07/28 07:10:52;;;;;;;;;;;;;;;22.79;93.84;98468.63;4980732;28;19936;-63
2021/07/28 07:13:17;;;;;;;;;;;;;;;22.82;92.04;98468.34;4980535;28;20056;-64
2021/07/28 07:15:43;;;;;;;;;;;;;;;23.31;91.62;98463.88;4984218;28;20417;-64
2021/07/28 07:18:08;;;;;;;;;;;;;;;23.20;89.92;98466.66;4984575;28;19940;-61
2021/07/28 07:20:33;;;;;;;;;;;;;;;23.88;85.87;98465.56;4979398;28;19956;-65
2021/07/28 07:22:59;;;;;;;;;;;;;;;23.37;90.41;98471.16;4980126;28;19918;-63
2021/07/28 07:25:24;;;;;;;;;;;;;;;22.72;93.68;98475.41;4978278;28;19985;-66
2021/07/28 07:27:50;;;;;;;;;;;;;;;23.18;89.99;98471.22;4981605;28;19925;-64
2021/07/28 07:30:15;;;;;;;;;;;;;;;23.96;84.06;98479.66;4994595;28;20334;-63
2021/07/28 07:32:41;;;;;;;;;;;;;;;23.15;86.67;98472.34;4992435;28;19941;-62
2021/07/28 07:35:06;;;;;;;;;;;;;;;24.15;86.31;98473.47;4976726;28;20875;-62
2021/07/28 07:37:32;;;;;;;;;;;;;;;24.50;83.17;98471.03;4979487;28;19922;-61
2021/07/28 07:39:57;;;;;;;;;;;;;;;24.35;80.26;98473.31;4978689;28;20048;-65
2021/07/28 07:42:22;;;;;;;;;;;;;;;24.90;79.42;98465.25;4980345;28;19925;-64
2021/07/28 07:44:48;;;;;;;;;;;;;;;24.29;85.23;98479.16;4989020;28;19957;-64
2021/07/28 07:47:14;;;;;;;;;;;;;;;24.59;81.35;98476.22;5003452;28;20012;-63
2021/07/28 07:49:39;;;;;;;;;;;;;;;24.53;81.03;98476.00;4989137;28;20025;-62
2021/07/28 07:52:04;;;;;;;;;;;;;;;24.77;81.74;98475.34;4987745;28;19918;-62
2021/07/28 07:54:30;;;;;;;;;;;;;;;24.47;83.49;98487.94;4985084;28;20019;-65
2021/07/28 07:56:55;;;;;;;;;;;;;;;23.61;85.93;98480.34;4976706;28;20403;-61
2021/07/28 07:59:21;;;;;;;;;;;;;;;23.15;86.45;98479.41;4982325;28;19928;-63
2021/07/28 08:01:46;;;;;;;;;;;;;;;22.84;90.69;98476.91;4979199;28;20012;-63
2021/07/28 08:04:11;;;;;;;;;;;;;;;23.24;87.42;98473.31;4975886;28;19940;-63
2021/07/28 08:06:37;;;;;;;;;;;;;;;23.48;88.20;98464.09;4991907;28;20004;-65
2021/07/28 08:09:04;;;;;;;;;;;;;;;23.37;90.20;98458.03;4967551;28;21865;-61
2021/07/28 08:11:30;;;;;;;;;;;;;;;24.56;82.63;98460.72;4984670;28;19984;-62
2021/07/28 08:13:55;;;;;;;;;;;;;;;24.76;80.36;98455.28;4986067;28;19961;-62
2021/07/28 08:16:22;;;;;;;;;;;;;;;24.94;79.23;98463.97;4970784;28;19922;-62
2021/07/28 08:18:48;;;;;;;;;;;;;;;25.05;79.01;98450.56;4985905;28;19929;-62
2021/07/28 08:21:14;;;;;;;;;;;;;;;25.65;74.75;98448.91;4986022;28;19922;-63
2021/07/28 08:23:40;;;;;;;;;;;;;;;26.29;71.94;98460.66;4969590;28;19943;-63
2021/07/28 08:26:06;;;;;;;;;;;;;;;26.01;71.16;98457.47;4986198;28;19949;-63
2021/07/28 08:28:31;;;;;;;;;;;;;;;25.70;71.17;98449.25;4989323;28;19926;-63
2021/07/28 08:30:57;;;;;;;;;;;;;;;26.39;72.75;98454.41;4994621;28;19928;-63
2021/07/28 08:33:23;;;;;;;;;;;;;;;25.80;73.49;98449.97;4991909;28;19922;-64
2021/07/28 08:35:49;;;;;;;;;;;;;;;27.13;66.22;98448.13;4991819;28;20377;-64
2021/07/28 08:38:14;;;;;;;;;;;;;;;26.75;69.42;98451.50;4988476;28;19922;-63
2021/07/28 08:40:41;;;;;;;;;;;;;;;26.51;66.62;98458.41;4985849;28;20029;-64
2021/07/28 08:43:06;;;;;;;;;;;;;;;25.67;69.91;98455.69;4991453;28;20334;-64
2021/07/28 08:45:32;;;;;;;;;;;;;;;25.91;70.87;98451.53;4992353;28;19924;-63
2021/07/28 08:47:57;;;;;;;;;;;;;;;26.28;69.89;98451.09;4990778;28;20020;-63
2021/07/28 08:50:22;;;;;;;;;;;;;;;25.75;71.27;98452.28;4987114;28;20299;-63
2021/07/28 08:52:48;;;;;;;;;;;;;;;26.12;72.77;98453.72;4970484;28;20379;-62
2021/07/28 08:55:14;;;;;;;;;;;;;;;26.58;67.51;98455.97;4973560;28;19914;-63
2021/07/28 08:57:40;;;;;;;;;;;;;;;26.11;68.97;98454.69;4989243;28;19934;-63
2021/07/28 09:00:07;;;;;;;;;;;;;;;26.36;66.04;98445.00;4976552;28;20643;-63
2021/07/28 09:02:32;;;;;;;;;;;;;;;27.11;65.57;98450.13;4983459;28;20375;-64
2021/07/28 09:04:58;;;;;;;;;;;;;;;26.15;65.93;98450.75;4983617;28;19967;-63
2021/07/28 09:07:23;;;;;;;;;;;;;;;26.70;68.45;98452.00;4984764;28;19968;-64
2021/07/28 09:09:56;;;;;;;;;;;;;;;26.06;68.21;98443.81;4968262;28;19952;-64
2021/07/28 09:12:32;;;;;;;;;;;;;;;26.87;65.38;98458.09;4989913;28;20302;-64
2021/07/28 09:15:01;;;;;;;;;;;;;;;27.61;64.94;98455.31;4976392;28;19933;-64
2021/07/28 09:17:29;;;;;;;;;;;;;;;28.03;62.84;98462.94;4984291;28;20389;-64
2021/07/28 09:19:55;;;;;;;;;;;;;;;27.95;63.19;98455.84;4986569;28;19921;-64
2021/07/28 09:22:22;;;;;;;;;;;;;;;26.68;64.61;98454.78;5002611;28;19987;-64
2021/07/28 09:25:07;;;;;;;;;;;;;;;26.60;71.41;98456.63;4989369;28;19941;-63
2021/07/28 09:27:43;;;;;;;;;;;;;;;27.44;60.61;98452.72;4995127;28;19928;-63
2021/07/28 09:30:09;;;;;;;;;;;;;;;27.58;63.97;98447.72;4980425;28;20462;-62
2021/07/28 09:32:35;;;;;;;;;;;;;;;28.03;58.37;98454.13;4979364;28;19913;-62
2021/07/28 09:35:01;;;;;;;;;;;;;;;27.26;61.74;98450.28;4979449;28;20121;-62
2021/07/28 09:37:27;;;;;;;;;;;;;;;27.54;58.92;98452.53;4979846;28;20135;-62
2021/07/28 09:39:53;;;;;;;;;;;;;;;27.51;62.00;98456.34;4996050;28;20471;-63
2021/07/28 09:42:19;;;;;;;;;;;;;;;28.59;58.15;98459.28;4984520;28;20000;-64
2021/07/28 09:44:46;;;;;;;;;;;;;;;28.42;54.41;98454.06;4983298;28;19968;-63
2021/07/28 09:47:11;;;;;;;;;;;;;;;27.06;58.38;98460.38;4983154;28;20450;-63
2021/07/28 09:49:38;;;;;;;;;;;;;;;28.78;56.60;98453.47;4984112;28;20056;-63
2021/07/28 09:52:23;;;;;;;;;;;;;;;28.32;53.86;98448.16;4985299;28;19968;-64
2021/07/28 09:54:49;;;;;;;;;;;;;;;27.85;59.07;98452.59;4978752;28;19917;-63
2021/07/28 09:57:22;;;;;;;;;;;;;;;28.11;57.24;98451.44;4969042;28;20315;-63
2021/07/28 09:59:55;;;;;;;;;;;;;;;27.49;60.22;98453.03;4992088;28;19924;-63
2021/07/28 10:02:21;;;;;;;;;;;;;;;26.86;60.41;98445.88;4978291;28;19968;-63
2021/07/28 10:04:48;;;;;;;;;;;;;;;28.30;61.85;98439.56;4972047;28;20235;-62
2021/07/28 10:07:17;;;;;;;;;;;;;;;28.61;58.51;98444.03;4992175;28;19918;-63
2021/07/28 10:09:45;;;;;;;;;;;;;;;27.99;60.17;98443.09;4966301;28;19928;-63
2021/07/28 10:12:11;;;;;;;;;;;;;;;28.27;61.07;98443.41;4981213;28;20213;-63
2021/07/28 10:14:37;;;;;;;;;;;;;;;28.05;56.36;98445.03;4981526;28;19925;-63
2021/07/28 10:17:03;;;;;;;;;;;;;;;24.62;69.21;98469.81;4989473;28;19924;-63
2021/07/28 10:19:28;;;;;;;;;;;;;;;21.25;100.00;98504.75;4990074;28;19918;-62
2021/07/28 10:21:54;;;;;;;;;;;;;;;21.13;100.00;98519.72;4989607;28;19918;-63
2021/07/28 10:24:20;;;;;;;;;;;;;;;22.11;100.00;98510.53;4989485;28;19929;-63
2021/07/28 10:26:51;;;;;;;;;;;;;;;23.23;96.26;98499.69;4989365;28;19913;-63
2021/07/28 10:29:16;;;;;;;;;;;;;;;24.55;94.37;98500.38;4975715;28;19913;-63
2021/07/28 10:31:48;;;;;;;;;;;;;;;24.33;83.72;98497.16;4970229;28;19968;-63
2021/07/28 10:34:24;;;;;;;;;;;;;;;23.00;98.10;98486.06;4984846;28;19922;-63
2021/07/28 10:37:00;;;;;;;;;;;;;;;22.94;94.29;98490.03;4983024;28;19921;-63
2021/07/28 10:39:46;;;;;;;;;;;;;;;22.09;100.00;98499.34;4984893;28;19918;-63
2021/07/28 10:42:12;;;;;;;;;;;;;;;22.71;100.00;98492.94;5000257;28;20950;-63
2021/07/28 10:44:56;;;;;;;;;;;;;;;23.25;100.00;98485.44;4984859;28;19975;-63
2021/07/28 10:47:37;;;;;;;;;;;;;;;24.30;89.23;98480.84;4985610;28;20302;-63
2021/07/28 10:50:26;;;;;;;;;;;;;;;22.30;100.00;98473.03;4986629;28;20600;-63
2021/07/28 10:52:55;;;;;;;;;;;;;;;23.07;96.83;98466.13;4978408;28;20288;-61
2021/07/28 10:55:25;;;;;;;;;;;;;;;23.96;100.00;98470.94;4987439;28;19925;-61
2021/07/28 10:57:54;;;;;;;;;;;;;;;22.54;100.00;98478.72;4987741;28;19980;-61
2021/07/28 11:00:38;;;;;;;;;;;;;;;24.01;95.90;98476.59;4988277;28;19924;-61
2021/07/28 11:03:07;;;;;;;;;;;;;;;22.79;100.00;98475.69;5001778;28;19983;-61
2021/07/28 11:05:35;;;;;;;;;;;;;;;22.68;100.00;98471.41;4987218;28;19918;-61
2021/07/28 11:08:02;;;;;;;;;;;;;;;22.97;92.50;98464.34;4988236;28;19953;-61
2021/07/28 11:10:33;;;;;;;;;;;;;;;23.00;100.00;98465.06;4988556;28;19957;-63
2021/07/28 11:12:59;;;;;;;;;;;;;;;22.79;100.00;98459.94;4991990;28;19924;-63
2021/07/28 11:15:25;;;;;;;;;;;;;;;23.35;99.92;98449.44;4992651;28;19933;-63
2021/07/28 11:17:54;;;;;;;;;;;;;;;24.07;92.98;98454.97;4993342;28;20592;-62
2021/07/28 11:20:25;;;;;;;;;;;;;;;23.89;93.65;98462.00;4979369;28;19921;-64
2021/07/28 11:22:51;;;;;;;;;;;;;;;24.45;93.08;98460.09;4991450;28;19918;-64
2021/07/28 11:25:16;;;;;;;;;;;;;;;25.12;87.79;98455.22;4992644;28;19920;-63
2021/07/28 11:28:01;;;;;;;;;;;;;;;24.59;88.99;98459.59;4992013;28;20319;-64
2021/07/28 11:30:27;;;;;;;;;;;;;;;24.91;84.91;98456.41;5005669;28;19921;-64
2021/07/28 11:32:53;;;;;;;;;;;;;;;25.10;85.94;98447.44;4988501;28;20552;-61
2021/07/28 11:35:18;;;;;;;;;;;;;;;26.35;80.29;98447.81;4986259;28;19922;-61
2021/07/28 11:37:44;;;;;;;;;;;;;;;26.44;78.93;98452.13;4986473;28;19914;-61
2021/07/28 11:40:10;;;;;;;;;;;;;;;26.39;78.75;98457.91;4985554;28;19928;-61
2021/07/28 11:42:39;;;;;;;;;;;;;;;27.76;71.77;98458.91;4991849;28;19965;-64
2021/07/28 11:45:05;;;;;;;;;;;;;;;28.19;71.51;98451.41;5004809;28;19920;-64
2021/07/28 11:47:30;;;;;;;;;;;;;;;27.54;71.58;98455.97;4987584;28;20040;-61
2021/07/28 11:50:00;;;;;;;;;;;;;;;27.88;69.04;98446.13;4984781;28;20387;-63
2021/07/28 11:52:26;;;;;;;;;;;;;;;27.76;78.54;98458.91;4989129;28;19922;-64
2021/07/28 11:54:52;;;;;;;;;;;;;;;27.00;68.89;98458.41;4991141;28;19966;-64
2021/07/28 11:57:17;;;;;;;;;;;;;;;26.74;70.87;98463.88;4988607;28;19960;-61
2021/07/28 11:59:42;;;;;;;;;;;;;;;27.22;71.15;98448.16;4984956;28;19918;-62
2021/07/28 12:02:17;;;;;;;;;;;;;;;28.45;69.51;98463.47;4968801;28;19929;-63
2021/07/28 12:04:46;;;;;;;;;;;;;;;27.35;69.95;98464.31;4983380;28;19925;-63
2021/07/28 12:07:12;;;;;;;;;;;;;;;26.39;72.81;98460.53;4983561;28;19917;-63
2021/07/28 12:09:38;;;;;;;;;;;;;;;28.45;73.39;98463.47;4982691;28;19925;-63
2021/07/28 12:12:03;;;;;;;;;;;;;;;28.30;67.78;98464.22;4985533;28;19929;-63
2021/07/28 12:14:33;;;;;;;;;;;;;;;28.39;70.37;98464.19;4990573;28;19937;-63
2021/07/28 12:17:00;;;;;;;;;;;;;;;28.59;66.27;98457.44;4984982;28;20387;-63
2021/07/28 12:19:30;;;;;;;;;;;;;;;28.43;63.71;98455.69;4982224;28;19926;-62
2021/07/28 12:21:59;;;;;;;;;;;;;;;28.91;62.72;98463.47;4975044;28;19926;-63
2021/07/28 12:24:35;;;;;;;;;;;;;;;28.60;68.40;98461.72;4987458;28;19960;-63
2021/07/28 12:27:30;;;;;;;;;;;;;;;28.51;63.38;98457.50;4985354;28;19918;-62
2021/07/28 12:30:04;;;;;;;;;;;;;;;28.75;65.08;98453.81;4974226;28;19921;-62
2021/07/28 12:32:37;;;;;;;;;;;;;;;29.85;58.62;98442.56;4982280;28;19925;-63
2021/07/28 12:35:22;;;;;;;;;;;;;;;30.66;63.46;98447.72;4972144;28;20009;-65
2021/07/28 12:38:07;;;;;;;;;;;;;;;30.27;57.79;98442.84;4978077;28;19922;-65
2021/07/28 12:40:32;;;;;;;;;;;;;;;30.86;54.76;98445.25;4988446;28;19976;-62